sensor_id;sensor_type;location;lat;lon;timestamp;pressure;altitude;pressure_sealevel;temperature;humidity
71996;BME280;59862;47.732;7.346;2023-02-12T00:01:21;99996.84;;;2.04;74.19
71996;BME280;59862;47.732;7.346;2023-02-12T00:03:49;99993.89;;;1.93;74.53
71996;BME280;59862;47.732;7.346;2023-02-12T00:06:17;99992.44;;;1.88;75.05
71996;BME280;59862;47.732;7.346;2023-02-12T00:08:47;99993.69;;;1.81;75.10
71996;BME280;59862;47.732;7.346;2023-02-12T00:11:16;99990.03;;;1.83;75.40
71996;BME280;59862;47.732;7.346;2023-02-12T00:13:43;99978.41;;;1.94;75.12
71996;BME280;59862;47.732;7.346;2023-02-12T00:16:14;99977.88;;;1.88;74.99
71996;BME280;59862;47.732;7.346;2023-02-12T00:18:42;99973.84;;;1.81;75.39
71996;BME280;59862;47.732;7.346;2023-02-12T00:21:11;99970.89;;;1.70;75.62
71996;BME280;59862;47.732;7.346;2023-02-12T00:23:40;99967.33;;;1.71;75.88
71996;BME280;59862;47.732;7.346;2023-02-12T00:26:09;99970.34;;;1.72;75.79
71996;BME280;59862;47.732;7.346;2023-02-12T00:28:38;99976.73;;;1.68;75.78
71996;BME280;59862;47.732;7.346;2023-02-12T00:31:07;99980.63;;;1.61;76.22
71996;BME280;59862;47.732;7.346;2023-02-12T00:33:34;99975.50;;;1.66;76.11
71996;BME280;59862;47.732;7.346;2023-02-12T00:36:03;99984.45;;;1.64;76.22
71996;BME280;59862;47.732;7.346;2023-02-12T00:38:31;99982.48;;;1.67;76.12
71996;BME280;59862;47.732;7.346;2023-02-12T00:40:58;99983.36;;;1.59;76.33
71996;BME280;59862;47.732;7.346;2023-02-12T00:43:26;99984.00;;;1.56;76.48
71996;BME280;59862;47.732;7.346;2023-02-12T00:45:53;99977.76;;;1.57;76.53
71996;BME280;59862;47.732;7.346;2023-02-12T00:48:21;99982.12;;;1.66;76.19
71996;BME280;59862;47.732;7.346;2023-02-12T00:50:49;99975.19;;;1.64;76.08
71996;BME280;59862;47.732;7.346;2023-02-12T00:53:17;99979.07;;;1.65;75.84
71996;BME280;59862;47.732;7.346;2023-02-12T00:55:45;99975.29;;;1.53;76.03
71996;BME280;59862;47.732;7.346;2023-02-12T00:58:12;99986.33;;;1.62;75.82
71996;BME280;59862;47.732;7.346;2023-02-12T01:00:42;99990.44;;;1.50;75.75
71996;BME280;59862;47.732;7.346;2023-02-12T01:03:10;99979.55;;;1.47;75.72
71996;BME280;59862;47.732;7.346;2023-02-12T01:05:38;99980.95;;;1.37;76.15
71996;BME280;59862;47.732;7.346;2023-02-12T01:08:05;99983.38;;;1.33;76.37
71996;BME280;59862;47.732;7.346;2023-02-12T01:10:33;99986.56;;;1.31;76.49
71996;BME280;59862;47.732;7.346;2023-02-12T01:13:01;99993.72;;;1.29;76.74
71996;BME280;59862;47.732;7.346;2023-02-12T01:15:28;99991.45;;;1.30;76.55
71996;BME280;59862;47.732;7.346;2023-02-12T01:17:56;99984.92;;;1.20;77.02
71996;BME280;59862;47.732;7.346;2023-02-12T01:20:24;99982.91;;;1.25;77.38
71996;BME280;59862;47.732;7.346;2023-02-12T01:22:52;99988.58;;;1.26;77.57
71996;BME280;59862;47.732;7.346;2023-02-12T01:25:19;99989.58;;;1.32;77.63
71996;BME280;59862;47.732;7.346;2023-02-12T01:27:47;99989.21;;;1.31;77.64
71996;BME280;59862;47.732;7.346;2023-02-12T01:30:15;99984.23;;;1.34;77.90
71996;BME280;59862;47.732;7.346;2023-02-12T01:32:43;99991.31;;;1.33;77.76
71996;BME280;59862;47.732;7.346;2023-02-12T01:35:10;99987.25;;;1.26;77.68
71996;BME280;59862;47.732;7.346;2023-02-12T01:37:38;99987.43;;;1.32;77.39
71996;BME280;59862;47.732;7.346;2023-02-12T01:40:07;99985.93;;;1.26;77.22
71996;BME280;59862;47.732;7.346;2023-02-12T01:42:35;99977.22;;;1.24;76.94
71996;BME280;59862;47.732;7.346;2023-02-12T01:47:43;99977.53;;;1.18;76.78
71996;BME280;59862;47.732;7.346;2023-02-12T01:50:14;99982.64;;;1.04;77.29
71996;BME280;59862;47.732;7.346;2023-02-12T01:52:47;99981.31;;;1.04;77.70
71996;BME280;59862;47.732;7.346;2023-02-12T01:55:15;99978.84;;;1.01;77.80
71996;BME280;59862;47.732;7.346;2023-02-12T01:57:44;99980.76;;;0.98;77.68
71996;BME280;59862;47.732;7.346;2023-02-12T02:00:17;99972.68;;;0.92;77.57
71996;BME280;59862;47.732;7.346;2023-02-12T02:02:47;99973.31;;;0.89;77.46
71996;BME280;59862;47.732;7.346;2023-02-12T02:05:17;99974.77;;;0.86;77.27
71996;BME280;59862;47.732;7.346;2023-02-12T02:07:45;99974.20;;;0.79;77.23
71996;BME280;59862;47.732;7.346;2023-02-12T02:10:13;99973.33;;;0.70;77.14
71996;BME280;59862;47.732;7.346;2023-02-12T02:12:40;99966.27;;;0.70;77.04
71996;BME280;59862;47.732;7.346;2023-02-12T02:15:27;99964.70;;;0.66;76.88
71996;BME280;59862;47.732;7.346;2023-02-12T02:18:37;99966.11;;;0.65;76.74
71996;BME280;59862;47.732;7.346;2023-02-12T02:26:44;99962.66;;;0.63;76.77
71996;BME280;59862;47.732;7.346;2023-02-12T02:32:23;99959.83;;;0.49;77.66
71996;BME280;59862;47.732;7.346;2023-02-12T02:35:04;99964.66;;;0.49;77.86
71996;BME280;59862;47.732;7.346;2023-02-12T02:37:35;99961.16;;;0.49;77.96
71996;BME280;59862;47.732;7.346;2023-02-12T02:40:22;99955.48;;;0.56;78.09
71996;BME280;59862;47.732;7.346;2023-02-12T02:42:57;99961.64;;;0.57;77.91
71996;BME280;59862;47.732;7.346;2023-02-12T02:45:27;99965.05;;;0.59;77.67
71996;BME280;59862;47.732;7.346;2023-02-12T02:48:00;99965.30;;;0.63;77.95
71996;BME280;59862;47.732;7.346;2023-02-12T02:50:29;99965.16;;;0.66;77.65
71996;BME280;59862;47.732;7.346;2023-02-12T02:54:02;99962.66;;;0.63;77.83
71996;BME280;59862;47.732;7.346;2023-02-12T02:55:50;99970.53;;;0.64;77.70
71996;BME280;59862;47.732;7.346;2023-02-12T02:58:24;99968.88;;;0.62;77.30
71996;BME280;59862;47.732;7.346;2023-02-12T03:00:57;99963.20;;;0.61;77.43
71996;BME280;59862;47.732;7.346;2023-02-12T03:03:44;99964.38;;;0.64;77.65
71996;BME280;59862;47.732;7.346;2023-02-12T03:06:13;99966.02;;;0.66;77.63
71996;BME280;59862;47.732;7.346;2023-02-12T03:08:46;99967.00;;;0.55;77.43
71996;BME280;59862;47.732;7.346;2023-02-12T03:11:23;99965.36;;;0.53;78.12
71996;BME280;59862;47.732;7.346;2023-02-12T03:13:56;99962.28;;;0.62;79.58
71996;BME280;59862;47.732;7.346;2023-02-12T03:16:31;99962.44;;;0.67;80.07
71996;BME280;59862;47.732;7.346;2023-02-12T03:24:28;99959.98;;;0.73;79.31
71996;BME280;59862;47.732;7.346;2023-02-12T03:26:58;99954.39;;;0.79;79.55
71996;BME280;59862;47.732;7.346;2023-02-12T03:29:26;99950.73;;;0.73;79.83
71996;BME280;59862;47.732;7.346;2023-02-12T03:31:57;99952.75;;;0.76;79.86
71996;BME280;59862;47.732;7.346;2023-02-12T03:34:34;99954.85;;;0.78;80.12
71996;BME280;59862;47.732;7.346;2023-02-12T03:37:13;99958.02;;;0.68;80.43
71996;BME280;59862;47.732;7.346;2023-02-12T03:42:16;99958.41;;;0.60;81.41
71996;BME280;59862;47.732;7.346;2023-02-12T03:44:58;99948.31;;;0.68;81.62
71996;BME280;59862;47.732;7.346;2023-02-12T03:47:32;99949.08;;;0.62;81.93
71996;BME280;59862;47.732;7.346;2023-02-12T03:50:06;99952.02;;;0.56;82.76
71996;BME280;59862;47.732;7.346;2023-02-12T03:52:32;99946.65;;;0.57;82.94
71996;BME280;59862;47.732;7.346;2023-02-12T03:55:01;99949.94;;;0.62;82.72
71996;BME280;59862;47.732;7.346;2023-02-12T03:57:31;99953.39;;;0.54;83.20
71996;BME280;59862;47.732;7.346;2023-02-12T04:00:08;99952.03;;;0.64;83.30
71996;BME280;59862;47.732;7.346;2023-02-12T04:02:34;99949.88;;;0.72;82.98
71996;BME280;59862;47.732;7.346;2023-02-12T04:05:06;99950.17;;;0.66;82.88
71996;BME280;59862;47.732;7.346;2023-02-12T04:07:35;99958.20;;;0.73;82.79
71996;BME280;59862;47.732;7.346;2023-02-12T04:10:03;99955.94;;;0.74;82.75
71996;BME280;59862;47.732;7.346;2023-02-12T04:12:54;99956.32;;;0.67;82.65
71996;BME280;59862;47.732;7.346;2023-02-12T04:15:45;99962.82;;;0.60;82.81
71996;BME280;59862;47.732;7.346;2023-02-12T04:20:53;99968.10;;;0.41;83.38
71996;BME280;59862;47.732;7.346;2023-02-12T04:23:46;99961.83;;;0.44;83.45
71996;BME280;59862;47.732;7.346;2023-02-12T04:26:31;99961.23;;;0.47;83.65
71996;BME280;59862;47.732;7.346;2023-02-12T04:29:13;99963.13;;;0.54;83.53
71996;BME280;59862;47.732;7.346;2023-02-12T04:31:55;99962.34;;;0.52;83.46
71996;BME280;59862;47.732;7.346;2023-02-12T04:37:14;99981.02;;;0.39;83.92
71996;BME280;59862;47.732;7.346;2023-02-12T04:39:40;99982.48;;;0.44;84.27
71996;BME280;59862;47.732;7.346;2023-02-12T04:42:09;99974.11;;;0.45;84.13
71996;BME280;59862;47.732;7.346;2023-02-12T04:44:39;99975.56;;;0.42;84.01
71996;BME280;59862;47.732;7.346;2023-02-12T04:47:09;99980.63;;;0.46;83.85
71996;BME280;59862;47.732;7.346;2023-02-12T04:49:36;99976.56;;;0.39;83.72
71996;BME280;59862;47.732;7.346;2023-02-12T04:52:04;99977.31;;;0.33;83.90
71996;BME280;59862;47.732;7.346;2023-02-12T04:54:31;99974.54;;;0.36;84.17
71996;BME280;59862;47.732;7.346;2023-02-12T04:56:58;99980.11;;;0.30;84.47
71996;BME280;59862;47.732;7.346;2023-02-12T04:59:26;99975.16;;;0.32;84.91
71996;BME280;59862;47.732;7.346;2023-02-12T05:01:54;99977.87;;;0.39;85.11
71996;BME280;59862;47.732;7.346;2023-02-12T05:04:21;99972.39;;;0.44;85.48
71996;BME280;59862;47.732;7.346;2023-02-12T05:06:48;99969.31;;;0.53;85.81
71996;BME280;59862;47.732;7.346;2023-02-12T05:09:18;99966.92;;;0.57;85.75
71996;BME280;59862;47.732;7.346;2023-02-12T05:11:46;99963.04;;;0.55;85.55
71996;BME280;59862;47.732;7.346;2023-02-12T05:14:13;99963.66;;;0.52;85.42
71996;BME280;59862;47.732;7.346;2023-02-12T05:16:41;99959.70;;;0.52;85.35
71996;BME280;59862;47.732;7.346;2023-02-12T05:19:09;99953.09;;;0.52;85.70
71996;BME280;59862;47.732;7.346;2023-02-12T05:21:37;99945.11;;;0.62;85.82
71996;BME280;59862;47.732;7.346;2023-02-12T05:24:05;99955.67;;;0.62;85.69
71996;BME280;59862;47.732;7.346;2023-02-12T05:26:33;99952.41;;;0.65;85.70
71996;BME280;59862;47.732;7.346;2023-02-12T05:29:02;99956.22;;;0.60;85.49
71996;BME280;59862;47.732;7.346;2023-02-12T05:31:29;99947.65;;;0.55;85.56
71996;BME280;59862;47.732;7.346;2023-02-12T05:33:57;99952.55;;;0.54;85.59
71996;BME280;59862;47.732;7.346;2023-02-12T05:36:25;99950.38;;;0.53;85.37
71996;BME280;59862;47.732;7.346;2023-02-12T05:38:56;99952.23;;;0.51;85.09
71996;BME280;59862;47.732;7.346;2023-02-12T05:41:24;99947.00;;;0.50;84.86
71996;BME280;59862;47.732;7.346;2023-02-12T05:43:52;99951.28;;;0.52;84.65
71996;BME280;59862;47.732;7.346;2023-02-12T05:46:20;99953.55;;;0.51;84.56
71996;BME280;59862;47.732;7.346;2023-02-12T05:48:48;99947.17;;;0.47;84.30
71996;BME280;59862;47.732;7.346;2023-02-12T05:51:18;99944.83;;;0.41;84.11
71996;BME280;59862;47.732;7.346;2023-02-12T05:53:48;99948.78;;;0.41;84.39
71996;BME280;59862;47.732;7.346;2023-02-12T05:56:18;99937.52;;;0.46;84.58
71996;BME280;59862;47.732;7.346;2023-02-12T05:58:50;99944.90;;;0.48;84.52
71996;BME280;59862;47.732;7.346;2023-02-12T06:01:19;99952.21;;;0.43;84.22
71996;BME280;59862;47.732;7.346;2023-02-12T06:03:47;99944.53;;;0.47;84.34
71996;BME280;59862;47.732;7.346;2023-02-12T06:06:14;99947.25;;;0.45;84.14
71996;BME280;59862;47.732;7.346;2023-02-12T06:08:42;99946.98;;;0.41;83.43
71996;BME280;59862;47.732;7.346;2023-02-12T06:11:12;99953.02;;;0.35;82.76
71996;BME280;59862;47.732;7.346;2023-02-12T06:13:40;99954.01;;;0.24;81.99
71996;BME280;59862;47.732;7.346;2023-02-12T06:16:20;99948.40;;;0.21;81.43
71996;BME280;59862;47.732;7.346;2023-02-12T06:18:44;99945.89;;;0.18;81.11
71996;BME280;59862;47.732;7.346;2023-02-12T06:21:11;99952.28;;;0.23;80.94
71996;BME280;59862;47.732;7.346;2023-02-12T06:23:39;99945.55;;;0.26;80.62
71996;BME280;59862;47.732;7.346;2023-02-12T06:26:07;99950.66;;;0.29;80.41
71996;BME280;59862;47.732;7.346;2023-02-12T06:28:35;99955.73;;;0.33;80.61
71996;BME280;59862;47.732;7.346;2023-02-12T06:31:03;99948.37;;;0.40;80.62
71996;BME280;59862;47.732;7.346;2023-02-12T06:33:30;99951.99;;;0.47;80.38
71996;BME280;59862;47.732;7.346;2023-02-12T06:36:02;99954.12;;;0.58;80.60
71996;BME280;59862;47.732;7.346;2023-02-12T06:38:30;99952.93;;;0.55;79.89
71996;BME280;59862;47.732;7.346;2023-02-12T06:41:00;99952.93;;;0.55;79.46
71996;BME280;59862;47.732;7.346;2023-02-12T06:43:28;99957.34;;;0.54;79.01
71996;BME280;59862;47.732;7.346;2023-02-12T06:45:58;99959.83;;;0.49;78.34
71996;BME280;59862;47.732;7.346;2023-02-12T06:48:24;99958.94;;;0.40;78.15
71996;BME280;59862;47.732;7.346;2023-02-12T06:50:52;99961.42;;;0.34;78.28
71996;BME280;59862;47.732;7.346;2023-02-12T06:53:19;99954.09;;;0.31;77.97
71996;BME280;59862;47.732;7.346;2023-02-12T06:55:47;99957.14;;;0.32;77.81
71996;BME280;59862;47.732;7.346;2023-02-12T06:58:14;99951.98;;;0.29;77.74
71996;BME280;59862;47.732;7.346;2023-02-12T07:00:41;99954.38;;;0.25;77.71
71996;BME280;59862;47.732;7.346;2023-02-12T07:03:09;99960.90;;;0.26;77.83
71996;BME280;59862;47.732;7.346;2023-02-12T07:05:38;99957.67;;;0.30;77.77
71996;BME280;59862;47.732;7.346;2023-02-12T07:08:06;99967.28;;;0.31;77.55
71996;BME280;59862;47.732;7.346;2023-02-12T07:10:34;99968.34;;;0.37;77.56
71996;BME280;59862;47.732;7.346;2023-02-12T07:13:01;99964.76;;;0.38;77.70
71996;BME280;59862;47.732;7.346;2023-02-12T07:15:30;99967.86;;;0.56;77.58
71996;BME280;59862;47.732;7.346;2023-02-12T07:17:58;99973.90;;;0.49;77.28
71996;BME280;59862;47.732;7.346;2023-02-12T07:20:25;99977.38;;;0.50;77.02
71996;BME280;59862;47.732;7.346;2023-02-12T07:22:53;99975.25;;;0.58;76.83
71996;BME280;59862;47.732;7.346;2023-02-12T07:25:20;99975.38;;;0.73;76.45
71996;BME280;59862;47.732;7.346;2023-02-12T07:27:47;99979.49;;;0.79;76.15
71996;BME280;59862;47.732;7.346;2023-02-12T07:30:15;99979.64;;;0.85;75.97
71996;BME280;59862;47.732;7.346;2023-02-12T07:32:44;99990.33;;;1.00;75.71
71996;BME280;59862;47.732;7.346;2023-02-12T07:35:12;99982.91;;;1.08;75.45
71996;BME280;59862;47.732;7.346;2023-02-12T07:37:39;99980.01;;;1.21;75.26
71996;BME280;59862;47.732;7.346;2023-02-12T07:40:08;99981.19;;;1.41;74.92
71996;BME280;59862;47.732;7.346;2023-02-12T07:42:35;99986.55;;;1.66;74.49
71996;BME280;59862;47.732;7.346;2023-02-12T07:45:03;99988.03;;;1.80;73.67
71996;BME280;59862;47.732;7.346;2023-02-12T07:47:31;99986.13;;;1.90;73.14
71996;BME280;59862;47.732;7.346;2023-02-12T07:50:00;99983.06;;;1.98;72.48
71996;BME280;59862;47.732;7.346;2023-02-12T07:52:28;99987.34;;;2.00;72.15
71996;BME280;59862;47.732;7.346;2023-02-12T07:54:55;99987.30;;;2.17;71.79
71996;BME280;59862;47.732;7.346;2023-02-12T07:57:23;99987.26;;;2.50;71.66
71996;BME280;59862;47.732;7.346;2023-02-12T07:59:51;99983.01;;;2.86;71.14
71996;BME280;59862;47.732;7.346;2023-02-12T08:02:18;99976.94;;;3.22;70.55
71996;BME280;59862;47.732;7.346;2023-02-12T08:04:46;99987.63;;;3.87;69.90
71996;BME280;59862;47.732;7.346;2023-02-12T08:07:13;99987.94;;;4.80;68.40
71996;BME280;59862;47.732;7.346;2023-02-12T08:09:41;99980.52;;;5.70;65.03
71996;BME280;59862;47.732;7.346;2023-02-12T08:12:08;99980.67;;;6.32;62.70
71996;BME280;59862;47.732;7.346;2023-02-12T08:14:36;99986.19;;;6.10;62.96
71996;BME280;59862;47.732;7.346;2023-02-12T08:17:03;99986.48;;;6.98;62.03
71996;BME280;59862;47.732;7.346;2023-02-12T08:19:30;99982.33;;;7.41;59.95
71996;BME280;59862;47.732;7.346;2023-02-12T08:21:58;99982.00;;;7.51;59.98
71996;BME280;59862;47.732;7.346;2023-02-12T08:24:28;99991.27;;;8.04;58.11
71996;BME280;59862;47.732;7.346;2023-02-12T08:26:55;99988.53;;;8.28;57.50
71996;BME280;59862;47.732;7.346;2023-02-12T08:29:26;99987.27;;;9.04;56.00
71996;BME280;59862;47.732;7.346;2023-02-12T08:31:59;99985.11;;;9.30;54.06
71996;BME280;59862;47.732;7.346;2023-02-12T08:34:32;99985.11;;;9.30;54.06
71996;BME280;59862;47.732;7.346;2023-02-12T08:37:01;99988.13;;;9.42;54.65
71996;BME280;59862;47.732;7.346;2023-02-12T08:39:29;99987.66;;;9.89;53.29
71996;BME280;59862;47.732;7.346;2023-02-12T08:41:57;99992.93;;;10.11;52.20
71996;BME280;59862;47.732;7.346;2023-02-12T08:44:26;99991.91;;;10.18;52.59
71996;BME280;59862;47.732;7.346;2023-02-12T08:46:54;99995.40;;;10.24;51.92
71996;BME280;59862;47.732;7.346;2023-02-12T08:49:24;99996.52;;;10.51;51.62
71996;BME280;59862;47.732;7.346;2023-02-12T08:51:54;99995.17;;;11.06;50.46
71996;BME280;59862;47.732;7.346;2023-02-12T08:54:24;99992.13;;;11.49;49.42
71996;BME280;59862;47.732;7.346;2023-02-12T08:56:57;99989.57;;;11.57;49.30
71996;BME280;59862;47.732;7.346;2023-02-12T08:59:25;99996.25;;;10.85;50.25
71996;BME280;59862;47.732;7.346;2023-02-12T09:01:53;99990.32;;;10.91;50.54
71996;BME280;59862;47.732;7.346;2023-02-12T09:04:24;99990.18;;;10.68;51.16
71996;BME280;59862;47.732;7.346;2023-02-12T09:06:52;99990.52;;;11.18;49.76
71996;BME280;59862;47.732;7.346;2023-02-12T09:09:20;100000.99;;;11.74;48.80
71996;BME280;59862;47.732;7.346;2023-02-12T09:11:48;99994.03;;;12.00;48.09
71996;BME280;59862;47.732;7.346;2023-02-12T09:14:17;99997.22;;;12.42;47.24
71996;BME280;59862;47.732;7.346;2023-02-12T09:16:46;99990.09;;;11.85;47.98
71996;BME280;59862;47.732;7.346;2023-02-12T09:19:14;99984.46;;;11.25;48.48
71996;BME280;59862;47.732;7.346;2023-02-12T09:21:42;99994.09;;;12.04;47.69
71996;BME280;59862;47.732;7.346;2023-02-12T09:24:10;99997.80;;;12.03;47.33
71996;BME280;59862;47.732;7.346;2023-02-12T09:26:39;99988.88;;;12.36;46.46
71996;BME280;59862;47.732;7.346;2023-02-12T09:29:06;99987.38;;;12.74;45.71
71996;BME280;59862;47.732;7.346;2023-02-12T09:31:34;99988.78;;;11.32;48.10
71996;BME280;59862;47.732;7.346;2023-02-12T09:34:03;99985.11;;;11.42;48.44
71996;BME280;59862;47.732;7.346;2023-02-12T09:36:32;99983.56;;;10.41;50.68
71996;BME280;59862;47.732;7.346;2023-02-12T09:39:02;99978.08;;;10.37;51.03
71996;BME280;59862;47.732;7.346;2023-02-12T09:44:31;99970.52;;;8.85;54.52
71996;BME280;59862;47.732;7.346;2023-02-12T09:47:14;99970.14;;;8.84;54.25
71996;BME280;59862;47.732;7.346;2023-02-12T09:52:15;99975.49;;;8.84;54.86
71996;BME280;59862;47.732;7.346;2023-02-12T09:54:44;99963.91;;;7.95;56.19
71996;BME280;59862;47.732;7.346;2023-02-12T09:57:17;99964.64;;;7.92;57.95
71996;BME280;59862;47.732;7.346;2023-02-12T09:59:47;99977.10;;;8.43;57.27
71996;BME280;59862;47.732;7.346;2023-02-12T10:02:17;99968.34;;;8.63;58.04
71996;BME280;59862;47.732;7.346;2023-02-12T10:04:47;99967.30;;;9.66;55.24
71996;BME280;59862;47.732;7.346;2023-02-12T10:10:45;99961.63;;;9.80;55.10
71996;BME280;59862;47.732;7.346;2023-02-12T10:15:55;99964.41;;;9.84;54.44
71996;BME280;59862;47.732;7.346;2023-02-12T10:26:54;99964.38;;;10.31;53.20
71996;BME280;59862;47.732;7.346;2023-02-12T10:29:32;99958.95;;;9.80;55.02
71996;BME280;59862;47.732;7.346;2023-02-12T10:32:04;99950.88;;;9.01;57.57
71996;BME280;59862;47.732;7.346;2023-02-12T10:34:34;99951.91;;;8.78;59.57
71996;BME280;59862;47.732;7.346;2023-02-12T10:37:11;99951.91;;;8.78;59.57
71996;BME280;59862;47.732;7.346;2023-02-12T10:39:43;99948.28;;;9.69;57.37
71996;BME280;59862;47.732;7.346;2023-02-12T10:42:16;99946.30;;;10.73;54.18
71996;BME280;59862;47.732;7.346;2023-02-12T10:44:44;99953.00;;;10.63;53.25
71996;BME280;59862;47.732;7.346;2023-02-12T10:47:17;99949.39;;;10.28;54.17
71996;BME280;59862;47.732;7.346;2023-02-12T10:49:57;99945.03;;;10.77;53.86
71996;BME280;59862;47.732;7.346;2023-02-12T10:52:41;99946.45;;;10.81;52.99
71996;BME280;59862;47.732;7.346;2023-02-12T10:55:27;99944.83;;;10.34;53.95
71996;BME280;59862;47.732;7.346;2023-02-12T10:57:55;99942.14;;;10.34;54.71
71996;BME280;59862;47.732;7.346;2023-02-12T11:00:32;99929.97;;;10.95;53.46
71996;BME280;59862;47.732;7.346;2023-02-12T11:03:21;99929.97;;;10.95;53.46
71996;BME280;59862;47.732;7.346;2023-02-12T11:05:49;99932.20;;;10.90;53.19
71996;BME280;59862;47.732;7.346;2023-02-12T11:08:35;99930.23;;;10.27;54.25
71996;BME280;59862;47.732;7.346;2023-02-12T11:11:05;99924.86;;;10.92;53.19
71996;BME280;59862;47.732;7.346;2023-02-12T11:13:33;99916.59;;;12.41;50.17
71996;BME280;59862;47.732;7.346;2023-02-12T11:16:02;99918.93;;;13.60;47.17
71996;BME280;59862;47.732;7.346;2023-02-12T11:18:31;99915.66;;;14.43;44.77
71996;BME280;59862;47.732;7.346;2023-02-12T11:21:03;99913.86;;;15.02;43.04
71996;BME280;59862;47.732;7.346;2023-02-12T11:23:38;99907.95;;;15.06;43.18
71996;BME280;59862;47.732;7.346;2023-02-12T11:28:59;99908.06;;;17.01;39.30
71996;BME280;59862;47.732;7.346;2023-02-12T11:31:32;99910.35;;;16.22;40.23
71996;BME280;59862;47.732;7.346;2023-02-12T11:34:06;99905.95;;;16.25;40.20
71996;BME280;59862;47.732;7.346;2023-02-12T11:36:42;99902.77;;;17.34;38.19
71996;BME280;59862;47.732;7.346;2023-02-12T11:39:28;99907.33;;;16.80;38.71
71996;BME280;59862;47.732;7.346;2023-02-12T11:42:13;99899.75;;;15.72;40.47
71996;BME280;59862;47.732;7.346;2023-02-12T11:44:38;99892.31;;;14.09;44.22
71996;BME280;59862;47.732;7.346;2023-02-12T11:47:08;99887.25;;;13.62;45.13
71996;BME280;59862;47.732;7.346;2023-02-12T11:49:39;99881.32;;;14.32;44.53
71996;BME280;59862;47.732;7.346;2023-02-12T11:52:17;99883.25;;;14.18;43.94
71996;BME280;59862;47.732;7.346;2023-02-12T11:54:42;99876.34;;;13.46;45.50
71996;BME280;59862;47.732;7.346;2023-02-12T11:57:36;99879.05;;;12.53;47.71
71996;BME280;59862;47.732;7.346;2023-02-12T12:00:16;99880.34;;;10.99;51.01
71996;BME280;59862;47.732;7.346;2023-02-12T12:02:37;99869.09;;;9.50;54.93
71996;BME280;59862;47.732;7.346;2023-02-12T12:05:17;99860.96;;;9.46;55.67
71996;BME280;59862;47.732;7.346;2023-02-12T12:07:44;99864.37;;;9.22;56.50
71996;BME280;59862;47.732;7.346;2023-02-12T12:10:19;99862.75;;;9.30;57.05
71996;BME280;59862;47.732;7.346;2023-02-12T12:12:58;99857.59;;;9.18;57.16
71996;BME280;59862;47.732;7.346;2023-02-12T12:15:30;99856.63;;;9.34;56.87
71996;BME280;59862;47.732;7.346;2023-02-12T12:18:44;99852.68;;;9.94;54.63
71996;BME280;59862;47.732;7.346;2023-02-12T12:21:56;99844.55;;;9.75;55.59
71996;BME280;59862;47.732;7.346;2023-02-12T12:24:48;99841.47;;;10.25;53.77
71996;BME280;59862;47.732;7.346;2023-02-12T12:27:33;99839.34;;;10.78;52.90
71996;BME280;59862;47.732;7.346;2023-02-12T12:30:27;99829.77;;;9.65;55.70
71996;BME280;59862;47.732;7.346;2023-02-12T12:32:50;99825.94;;;10.53;53.90
71996;BME280;59862;47.732;7.346;2023-02-12T12:35:21;99818.81;;;10.23;54.18
71996;BME280;59862;47.732;7.346;2023-02-12T12:38:43;99818.81;;;10.23;54.18
71996;BME280;59862;47.732;7.346;2023-02-12T12:41:02;99824.38;;;10.50;53.63
71996;BME280;59862;47.732;7.346;2023-02-12T12:46:20;99819.20;;;10.78;52.97
71996;BME280;59862;47.732;7.346;2023-02-12T12:48:57;99814.39;;;10.37;54.25
71996;BME280;59862;47.732;7.346;2023-02-12T12:51:40;99809.80;;;10.24;54.32
71996;BME280;59862;47.732;7.346;2023-02-12T12:56:56;99807.41;;;10.84;52.26
71996;BME280;59862;47.732;7.346;2023-02-12T13:08:05;99807.62;;;16.59;38.62
71996;BME280;59862;47.732;7.346;2023-02-12T13:10:47;99812.98;;;15.66;39.27
71996;BME280;59862;47.732;7.346;2023-02-12T13:13:32;99809.37;;;16.02;39.47
71996;BME280;59862;47.732;7.346;2023-02-12T13:27:03;99814.45;;;20.49;31.47
71996;BME280;59862;47.732;7.346;2023-02-12T13:29:53;99807.20;;;20.99;30.13
71996;BME280;59862;47.732;7.346;2023-02-12T13:32:27;99806.80;;;21.52;28.55
71996;BME280;59862;47.732;7.346;2023-02-12T13:34:56;99808.90;;;21.50;28.61
71996;BME280;59862;47.732;7.346;2023-02-12T13:40:07;99804.72;;;21.87;27.74
71996;BME280;59862;47.732;7.346;2023-02-12T13:48:24;99801.89;;;24.90;24.42
71996;BME280;59862;47.732;7.346;2023-02-12T13:53:57;99805.94;;;23.19;25.39
71996;BME280;59862;47.732;7.346;2023-02-12T13:56:33;99807.53;;;22.38;26.84
71996;BME280;59862;47.732;7.346;2023-02-12T13:58:59;99809.61;;;22.49;26.92
71996;BME280;59862;47.732;7.346;2023-02-12T14:01:44;99810.86;;;22.59;26.57
71996;BME280;59862;47.732;7.346;2023-02-12T14:07:02;99808.95;;;23.42;25.63
71996;BME280;59862;47.732;7.346;2023-02-12T14:09:40;99812.91;;;25.61;23.31
71996;BME280;59862;47.732;7.346;2023-02-12T14:12:14;99808.14;;;23.66;25.57
71996;BME280;59862;47.732;7.346;2023-02-12T14:14:46;99803.55;;;22.76;25.71
71996;BME280;59862;47.732;7.346;2023-02-12T14:20:27;99808.86;;;22.51;26.15
71996;BME280;59862;47.732;7.346;2023-02-12T14:23:00;99812.73;;;23.10;25.10
71996;BME280;59862;47.732;7.346;2023-02-12T14:25:35;99812.38;;;23.78;24.72
71996;BME280;59862;47.732;7.346;2023-02-12T14:28:21;99806.70;;;24.40;24.15
71996;BME280;59862;47.732;7.346;2023-02-12T14:31:20;99803.33;;;23.15;25.12
71996;BME280;59862;47.732;7.346;2023-02-12T14:36:36;99798.83;;;24.26;24.11
71996;BME280;59862;47.732;7.346;2023-02-12T14:41:53;99797.53;;;23.14;25.58
71996;BME280;59862;47.732;7.346;2023-02-12T14:46:59;99798.55;;;22.11;27.32
71996;BME280;59862;47.732;7.346;2023-02-12T14:49:39;99806.45;;;24.24;25.00
71996;BME280;59862;47.732;7.346;2023-02-12T14:54:56;99804.98;;;26.43;22.80
71996;BME280;59862;47.732;7.346;2023-02-12T14:57:40;99807.19;;;23.79;25.43
71996;BME280;59862;47.732;7.346;2023-02-12T15:00:33;99803.84;;;23.61;25.89
71996;BME280;59862;47.732;7.346;2023-02-12T15:05:58;99801.80;;;24.97;24.42
71996;BME280;59862;47.732;7.346;2023-02-12T15:08:35;99795.69;;;25.24;24.11
71996;BME280;59862;47.732;7.346;2023-02-12T15:11:08;99796.61;;;21.70;28.92
71996;BME280;59862;47.732;7.346;2023-02-12T15:16:32;99792.10;;;18.10;35.11
71996;BME280;59862;47.732;7.346;2023-02-12T15:21:47;99784.10;;;15.54;40.59